sensor_id;sensor_type;location;lat;lon;timestamp;temperature;humidity
12152;DHT22;6139;51.274;7.128;2023-04-24T00:00:53;10.00;1.00
12152;DHT22;6139;51.274;7.128;2023-04-24T00:01:57;10.00;1.00
12152;DHT22;6139;51.274;7.128;2023-04-24T00:02:59;10.00;1.00
12152;DHT22;6139;51.274;7.128;2023-04-24T00:04:01;10.10;1.00
12152;DHT22;6139;51.274;7.128;2023-04-24T00:05:02;10.00;1.00
12152;DHT22;6139;51.274;7.128;2023-04-24T00:06:05;10.10;1.00
12152;DHT22;6139;51.274;7.128;2023-04-24T00:07:07;10.10;1.00
12152;DHT22;6139;51.274;7.128;2023-04-24T00:08:09;10.10;1.00
12152;DHT22;6139;51.274;7.128;2023-04-24T00:09:10;10.10;1.00
12152;DHT22;6139;51.274;7.128;2023-04-24T00:10:12;10.10;1.00
12152;DHT22;6139;51.274;7.128;2023-04-24T00:11:13;10.00;1.00
12152;DHT22;6139;51.274;7.128;2023-04-24T00:12:15;10.00;1.00
12152;DHT22;6139;51.274;7.128;2023-04-24T00:13:17;10.00;1.00
12152;DHT22;6139;51.274;7.128;2023-04-24T00:14:19;10.00;1.00
12152;DHT22;6139;51.274;7.128;2023-04-24T00:15:21;10.00;1.00
12152;DHT22;6139;51.274;7.128;2023-04-24T00:16:23;10.00;1.00
12152;DHT22;6139;51.274;7.128;2023-04-24T00:17:24;10.00;1.00
12152;DHT22;6139;51.274;7.128;2023-04-24T00:18:25;10.00;1.00
12152;DHT22;6139;51.274;7.128;2023-04-24T00:19:28;10.00;1.00
12152;DHT22;6139;51.274;7.128;2023-04-24T00:20:29;10.00;1.00
12152;DHT22;6139;51.274;7.128;2023-04-24T00:21:33;10.00;1.00
12152;DHT22;6139;51.274;7.128;2023-04-24T00:22:34;10.00;1.00
12152;DHT22;6139;51.274;7.128;2023-04-24T00:23:36;10.00;1.00
12152;DHT22;6139;51.274;7.128;2023-04-24T00:24:37;10.00;1.00
12152;DHT22;6139;51.274;7.128;2023-04-24T00:25:39;10.00;1.00
12152;DHT22;6139;51.274;7.128;2023-04-24T00:26:40;10.00;1.00
12152;DHT22;6139;51.274;7.128;2023-04-24T00:27:42;10.00;1.00
12152;DHT22;6139;51.274;7.128;2023-04-24T00:28:44;10.00;1.00
12152;DHT22;6139;51.274;7.128;2023-04-24T00:29:47;10.00;1.00
12152;DHT22;6139;51.274;7.128;2023-04-24T00:30:48;9.90;1.00
12152;DHT22;6139;51.274;7.128;2023-04-24T00:31:50;9.90;1.00
12152;DHT22;6139;51.274;7.128;2023-04-24T00:32:51;9.90;1.00
12152;DHT22;6139;51.274;7.128;2023-04-24T00:33:53;9.90;1.00
12152;DHT22;6139;51.274;7.128;2023-04-24T00:34:54;9.90;1.00
12152;DHT22;6139;51.274;7.128;2023-04-24T00:35:56;9.90;1.00
12152;DHT22;6139;51.274;7.128;2023-04-24T00:36:57;9.90;1.00
12152;DHT22;6139;51.274;7.128;2023-04-24T00:37:59;9.90;1.00
12152;DHT22;6139;51.274;7.128;2023-04-24T00:39:00;9.90;1.00
12152;DHT22;6139;51.274;7.128;2023-04-24T00:40:03;9.90;1.00
12152;DHT22;6139;51.274;7.128;2023-04-24T00:41:04;9.90;1.00
12152;DHT22;6139;51.274;7.128;2023-04-24T00:42:06;9.80;1.00
12152;DHT22;6139;51.274;7.128;2023-04-24T00:43:07;9.90;1.00
12152;DHT22;6139;51.274;7.128;2023-04-24T00:44:11;9.80;1.00
12152;DHT22;6139;51.274;7.128;2023-04-24T00:45:13;9.90;1.00
12152;DHT22;6139;51.274;7.128;2023-04-24T00:46:16;9.90;1.00
12152;DHT22;6139;51.274;7.128;2023-04-24T00:47:19;9.80;1.00
12152;DHT22;6139;51.274;7.128;2023-04-24T00:48:23;9.80;1.00
12152;DHT22;6139;51.274;7.128;2023-04-24T00:49:24;9.90;1.00
12152;DHT22;6139;51.274;7.128;2023-04-24T00:50:26;9.80;1.00
12152;DHT22;6139;51.274;7.128;2023-04-24T00:51:27;9.90;1.00
12152;DHT22;6139;51.274;7.128;2023-04-24T00:52:31;9.90;1.00
12152;DHT22;6139;51.274;7.128;2023-04-24T00:53:33;9.80;1.00
12152;DHT22;6139;51.274;7.128;2023-04-24T00:54:35;9.80;1.00
12152;DHT22;6139;51.274;7.128;2023-04-24T00:55:36;9.90;1.00
12152;DHT22;6139;51.274;7.128;2023-04-24T00:56:39;9.90;1.00
12152;DHT22;6139;51.274;7.128;2023-04-24T00:57:41;9.90;1.00
12152;DHT22;6139;51.274;7.128;2023-04-24T00:58:44;9.90;1.00
12152;DHT22;6139;51.274;7.128;2023-04-24T00:59:46;9.90;1.00
12152;DHT22;6139;51.274;7.128;2023-04-24T01:00:49;9.90;1.00
12152;DHT22;6139;51.274;7.128;2023-04-24T01:01:51;9.90;1.00
12152;DHT22;6139;51.274;7.128;2023-04-24T01:02:53;9.90;1.00
12152;DHT22;6139;51.274;7.128;2023-04-24T01:03:55;9.90;1.00
12152;DHT22;6139;51.274;7.128;2023-04-24T01:04:59;9.90;1.00
12152;DHT22;6139;51.274;7.128;2023-04-24T01:06:01;9.90;1.00
12152;DHT22;6139;51.274;7.128;2023-04-24T01:07:04;9.90;1.00
12152;DHT22;6139;51.274;7.128;2023-04-24T01:08:10;9.90;1.00
12152;DHT22;6139;51.274;7.128;2023-04-24T01:09:12;9.90;1.00
12152;DHT22;6139;51.274;7.128;2023-04-24T01:10:15;9.90;1.00
12152;DHT22;6139;51.274;7.128;2023-04-24T01:11:21;9.90;1.00
12152;DHT22;6139;51.274;7.128;2023-04-24T01:12:22;9.90;1.00
12152;DHT22;6139;51.274;7.128;2023-04-24T01:13:24;9.90;1.00
12152;DHT22;6139;51.274;7.128;2023-04-24T01:14:25;9.90;1.00
12152;DHT22;6139;51.274;7.128;2023-04-24T01:15:29;9.90;1.00
12152;DHT22;6139;51.274;7.128;2023-04-24T01:16:30;9.90;1.00
12152;DHT22;6139;51.274;7.128;2023-04-24T01:17:32;9.90;99.90
12152;DHT22;6139;51.274;7.128;2023-04-24T01:18:33;9.90;99.90
12152;DHT22;6139;51.274;7.128;2023-04-24T01:19:35;9.90;99.90
12152;DHT22;6139;51.274;7.128;2023-04-24T01:20:40;9.80;99.90
12152;DHT22;6139;51.274;7.128;2023-04-24T01:21:43;9.80;99.90
12152;DHT22;6139;51.274;7.128;2023-04-24T01:22:45;9.80;99.90
12152;DHT22;6139;51.274;7.128;2023-04-24T01:23:50;9.80;99.90
12152;DHT22;6139;51.274;7.128;2023-04-24T01:24:53;9.90;99.90
12152;DHT22;6139;51.274;7.128;2023-04-24T01:25:55;9.90;99.90
12152;DHT22;6139;51.274;7.128;2023-04-24T01:26:56;9.90;99.90
12152;DHT22;6139;51.274;7.128;2023-04-24T01:27:58;9.90;99.90
12152;DHT22;6139;51.274;7.128;2023-04-24T01:29:00;9.90;99.90
12152;DHT22;6139;51.274;7.128;2023-04-24T01:30:02;9.90;99.90
12152;DHT22;6139;51.274;7.128;2023-04-24T01:31:06;9.90;99.90
12152;DHT22;6139;51.274;7.128;2023-04-24T01:32:08;9.80;99.90
12152;DHT22;6139;51.274;7.128;2023-04-24T01:33:09;9.90;99.90
12152;DHT22;6139;51.274;7.128;2023-04-24T01:36:10;9.80;99.90
12152;DHT22;6139;51.274;7.128;2023-04-24T01:37:12;9.80;99.90
12152;DHT22;6139;51.274;7.128;2023-04-24T01:38:15;9.80;99.90
12152;DHT22;6139;51.274;7.128;2023-04-24T01:39:17;9.70;99.90
12152;DHT22;6139;51.274;7.128;2023-04-24T01:40:18;9.70;99.90
12152;DHT22;6139;51.274;7.128;2023-04-24T01:41:21;9.70;99.90
12152;DHT22;6139;51.274;7.128;2023-04-24T01:42:22;9.70;99.90
12152;DHT22;6139;51.274;7.128;2023-04-24T01:43:24;9.70;99.90
12152;DHT22;6139;51.274;7.128;2023-04-24T01:44:26;9.70;99.90
12152;DHT22;6139;51.274;7.128;2023-04-24T01:45:27;9.60;99.90
12152;DHT22;6139;51.274;7.128;2023-04-24T01:46:28;9.60;99.90
12152;DHT22;6139;51.274;7.128;2023-04-24T01:47:32;9.60;99.90
12152;DHT22;6139;51.274;7.128;2023-04-24T01:48:33;9.70;99.90
12152;DHT22;6139;51.274;7.128;2023-04-24T01:49:36;9.70;99.90
12152;DHT22;6139;51.274;7.128;2023-04-24T01:50:39;9.70;1.00
12152;DHT22;6139;51.274;7.128;2023-04-24T01:51:41;9.70;1.00
12152;DHT22;6139;51.274;7.128;2023-04-24T01:52:42;9.70;1.00
12152;DHT22;6139;51.274;7.128;2023-04-24T01:53:45;9.60;99.90
12152;DHT22;6139;51.274;7.128;2023-04-24T01:54:46;9.60;1.00
12152;DHT22;6139;51.274;7.128;2023-04-24T01:55:48;9.60;1.00
12152;DHT22;6139;51.274;7.128;2023-04-24T01:56:49;9.60;1.00
12152;DHT22;6139;51.274;7.128;2023-04-24T01:57:52;9.60;1.00
12152;DHT22;6139;51.274;7.128;2023-04-24T01:58:56;9.60;1.00
12152;DHT22;6139;51.274;7.128;2023-04-24T01:59:58;9.50;1.00
12152;DHT22;6139;51.274;7.128;2023-04-24T02:01:00;9.50;1.00
12152;DHT22;6139;51.274;7.128;2023-04-24T02:02:02;9.50;1.00
12152;DHT22;6139;51.274;7.128;2023-04-24T02:03:03;9.50;1.00
12152;DHT22;6139;51.274;7.128;2023-04-24T02:04:06;9.50;1.00
12152;DHT22;6139;51.274;7.128;2023-04-24T02:05:09;9.40;99.90
12152;DHT22;6139;51.274;7.128;2023-04-24T02:06:11;9.40;1.00
12152;DHT22;6139;51.274;7.128;2023-04-24T02:07:12;9.40;1.00
12152;DHT22;6139;51.274;7.128;2023-04-24T02:08:14;9.40;1.00
12152;DHT22;6139;51.274;7.128;2023-04-24T02:09:17;9.40;1.00
12152;DHT22;6139;51.274;7.128;2023-04-24T02:10:18;9.40;1.00
12152;DHT22;6139;51.274;7.128;2023-04-24T02:11:19;9.40;1.00
12152;DHT22;6139;51.274;7.128;2023-04-24T02:12:21;9.30;1.00
12152;DHT22;6139;51.274;7.128;2023-04-24T02:13:22;9.30;1.00
12152;DHT22;6139;51.274;7.128;2023-04-24T02:14:24;9.30;1.00
12152;DHT22;6139;51.274;7.128;2023-04-24T02:15:25;9.30;1.00
12152;DHT22;6139;51.274;7.128;2023-04-24T02:16:28;9.20;1.00
12152;DHT22;6139;51.274;7.128;2023-04-24T02:17:33;9.20;1.00
12152;DHT22;6139;51.274;7.128;2023-04-24T02:18:35;9.20;1.00
12152;DHT22;6139;51.274;7.128;2023-04-24T02:19:36;9.10;1.00
12152;DHT22;6139;51.274;7.128;2023-04-24T02:20:38;9.10;1.00
12152;DHT22;6139;51.274;7.128;2023-04-24T02:21:39;9.10;1.00
12152;DHT22;6139;51.274;7.128;2023-04-24T02:22:43;9.10;1.00
12152;DHT22;6139;51.274;7.128;2023-04-24T02:23:44;9.10;1.00
12152;DHT22;6139;51.274;7.128;2023-04-24T02:24:48;9.10;1.00
12152;DHT22;6139;51.274;7.128;2023-04-24T02:25:50;9.00;1.00
12152;DHT22;6139;51.274;7.128;2023-04-24T02:26:53;9.00;1.00
12152;DHT22;6139;51.274;7.128;2023-04-24T02:27:55;9.00;1.00
12152;DHT22;6139;51.274;7.128;2023-04-24T02:28:57;9.00;1.00
12152;DHT22;6139;51.274;7.128;2023-04-24T02:29:58;9.00;1.00
12152;DHT22;6139;51.274;7.128;2023-04-24T02:31:00;8.90;1.00
12152;DHT22;6139;51.274;7.128;2023-04-24T02:32:01;8.90;1.00
12152;DHT22;6139;51.274;7.128;2023-04-24T02:33:03;8.90;1.00
12152;DHT22;6139;51.274;7.128;2023-04-24T02:34:04;8.90;1.00
12152;DHT22;6139;51.274;7.128;2023-04-24T02:35:07;8.90;1.00
12152;DHT22;6139;51.274;7.128;2023-04-24T02:36:08;8.90;1.00
12152;DHT22;6139;51.274;7.128;2023-04-24T02:37:10;8.90;1.00
12152;DHT22;6139;51.274;7.128;2023-04-24T02:38:11;8.90;1.00
12152;DHT22;6139;51.274;7.128;2023-04-24T02:39:13;8.90;1.00
12152;DHT22;6139;51.274;7.128;2023-04-24T02:40:16;8.90;1.00
12152;DHT22;6139;51.274;7.128;2023-04-24T02:41:18;8.90;1.00
12152;DHT22;6139;51.274;7.128;2023-04-24T02:42:19;8.90;1.00
12152;DHT22;6139;51.274;7.128;2023-04-24T02:43:21;8.90;1.00
12152;DHT22;6139;51.274;7.128;2023-04-24T02:44:22;8.80;1.00
12152;DHT22;6139;51.274;7.128;2023-04-24T02:45:25;8.80;1.00
12152;DHT22;6139;51.274;7.128;2023-04-24T02:46:26;8.80;1.00
12152;DHT22;6139;51.274;7.128;2023-04-24T02:47:28;8.80;1.00
12152;DHT22;6139;51.274;7.128;2023-04-24T02:48:29;8.80;1.00
12152;DHT22;6139;51.274;7.128;2023-04-24T02:49:30;8.80;1.00
12152;DHT22;6139;51.274;7.128;2023-04-24T02:50:31;8.80;1.00
12152;DHT22;6139;51.274;7.128;2023-04-24T02:51:34;8.80;1.00
12152;DHT22;6139;51.274;7.128;2023-04-24T02:52:35;8.80;1.00
12152;DHT22;6139;51.274;7.128;2023-04-24T02:53:37;8.80;1.00
12152;DHT22;6139;51.274;7.128;2023-04-24T02:54:38;8.80;1.00
12152;DHT22;6139;51.274;7.128;2023-04-24T02:55:41;8.80;1.00
12152;DHT22;6139;51.274;7.128;2023-04-24T02:56:42;8.80;1.00
12152;DHT22;6139;51.274;7.128;2023-04-24T02:57:44;8.80;1.00
12152;DHT22;6139;51.274;7.128;2023-04-24T02:58:45;8.80;1.00
12152;DHT22;6139;51.274;7.128;2023-04-24T02:59:47;8.80;1.00
12152;DHT22;6139;51.274;7.128;2023-04-24T03:00:48;8.80;1.00
12152;DHT22;6139;51.274;7.128;2023-04-24T03:01:50;8.70;1.00
12152;DHT22;6139;51.274;7.128;2023-04-24T03:02:51;8.70;1.00
12152;DHT22;6139;51.274;7.128;2023-04-24T03:03:53;8.70;1.00
12152;DHT22;6139;51.274;7.128;2023-04-24T03:04:54;8.70;1.00
12152;DHT22;6139;51.274;7.128;2023-04-24T03:05:57;8.70;1.00
12152;DHT22;6139;51.274;7.128;2023-04-24T03:06:59;8.80;1.00
12152;DHT22;6139;51.274;7.128;2023-04-24T03:08:01;8.70;1.00
12152;DHT22;6139;51.274;7.128;2023-04-24T03:09:02;8.80;1.00
12152;DHT22;6139;51.274;7.128;2023-04-24T03:10:07;8.80;1.00
12152;DHT22;6139;51.274;7.128;2023-04-24T03:11:10;8.80;1.00
12152;DHT22;6139;51.274;7.128;2023-04-24T03:12:12;8.80;1.00
12152;DHT22;6139;51.274;7.128;2023-04-24T03:13:13;8.80;1.00
12152;DHT22;6139;51.274;7.128;2023-04-24T03:14:16;8.80;1.00
12152;DHT22;6139;51.274;7.128;2023-04-24T03:15:18;8.80;1.00
12152;DHT22;6139;51.274;7.128;2023-04-24T03:16:19;8.80;1.00
12152;DHT22;6139;51.274;7.128;2023-04-24T03:17:21;8.80;1.00
12152;DHT22;6139;51.274;7.128;2023-04-24T03:18:23;8.80;1.00
12152;DHT22;6139;51.274;7.128;2023-04-24T03:19:25;8.80;1.00
12152;DHT22;6139;51.274;7.128;2023-04-24T03:20:34;8.70;1.00
12152;DHT22;6139;51.274;7.128;2023-04-24T03:21:37;8.70;1.00
12152;DHT22;6139;51.274;7.128;2023-04-24T03:22:41;8.70;1.00
12152;DHT22;6139;51.274;7.128;2023-04-24T03:23:42;8.70;1.00
12152;DHT22;6139;51.274;7.128;2023-04-24T03:24:45;8.70;1.00
12152;DHT22;6139;51.274;7.128;2023-04-24T03:25:48;8.70;1.00
12152;DHT22;6139;51.274;7.128;2023-04-24T03:26:54;8.70;1.00
12152;DHT22;6139;51.274;7.128;2023-04-24T03:28:19;8.70;1.00
12152;DHT22;6139;51.274;7.128;2023-04-24T03:29:30;8.70;1.00
12152;DHT22;6139;51.274;7.128;2023-04-24T03:30:31;8.80;1.00
12152;DHT22;6139;51.274;7.128;2023-04-24T03:31:35;8.80;1.00
12152;DHT22;6139;51.274;7.128;2023-04-24T03:32:36;8.80;1.00
12152;DHT22;6139;51.274;7.128;2023-04-24T03:33:39;8.80;1.00
12152;DHT22;6139;51.274;7.128;2023-04-24T03:34:41;8.80;1.00
12152;DHT22;6139;51.274;7.128;2023-04-24T03:35:47;8.80;1.00
12152;DHT22;6139;51.274;7.128;2023-04-24T03:36:48;8.80;1.00
12152;DHT22;6139;51.274;7.128;2023-04-24T03:37:50;8.80;1.00
12152;DHT22;6139;51.274;7.128;2023-04-24T03:39:29;8.70;1.00
12152;DHT22;6139;51.274;7.128;2023-04-24T03:40:31;8.70;1.00
12152;DHT22;6139;51.274;7.128;2023-04-24T03:41:34;8.70;1.00
12152;DHT22;6139;51.274;7.128;2023-04-24T03:42:44;8.70;1.00
12152;DHT22;6139;51.274;7.128;2023-04-24T03:43:46;8.70;1.00
12152;DHT22;6139;51.274;7.128;2023-04-24T03:44:48;8.70;1.00
12152;DHT22;6139;51.274;7.128;2023-04-24T03:45:49;8.70;1.00
12152;DHT22;6139;51.274;7.128;2023-04-24T03:46:52;8.70;1.00
12152;DHT22;6139;51.274;7.128;2023-04-24T03:47:55;8.70;1.00
12152;DHT22;6139;51.274;7.128;2023-04-24T03:48:57;8.70;1.00
12152;DHT22;6139;51.274;7.128;2023-04-24T03:50:03;8.70;1.00
12152;DHT22;6139;51.274;7.128;2023-04-24T03:51:06;8.80;1.00
12152;DHT22;6139;51.274;7.128;2023-04-24T03:52:09;8.70;1.00
12152;DHT22;6139;51.274;7.128;2023-04-24T03:53:11;8.70;1.00
12152;DHT22;6139;51.274;7.128;2023-04-24T03:54:14;8.70;1.00
12152;DHT22;6139;51.274;7.128;2023-04-24T03:55:16;8.70;1.00
12152;DHT22;6139;51.274;7.128;2023-04-24T03:56:20;8.70;1.00
12152;DHT22;6139;51.274;7.128;2023-04-24T03:57:22;8.70;1.00
12152;DHT22;6139;51.274;7.128;2023-04-24T03:58:37;8.70;1.00
12152;DHT22;6139;51.274;7.128;2023-04-24T03:59:39;8.60;1.00
12152;DHT22;6139;51.274;7.128;2023-04-24T04:00:46;8.70;1.00
12152;DHT22;6139;51.274;7.128;2023-04-24T04:02:27;8.60;1.00
12152;DHT22;6139;51.274;7.128;2023-04-24T04:03:29;8.60;1.00
12152;DHT22;6139;51.274;7.128;2023-04-24T04:04:30;8.60;1.00
12152;DHT22;6139;51.274;7.128;2023-04-24T04:05:32;8.60;1.00
12152;DHT22;6139;51.274;7.128;2023-04-24T04:06:32;8.60;1.00
12152;DHT22;6139;51.274;7.128;2023-04-24T04:07:35;8.60;1.00
12152;DHT22;6139;51.274;7.128;2023-04-24T04:08:36;8.60;1.00
12152;DHT22;6139;51.274;7.128;2023-04-24T04:09:38;8.60;1.00
12152;DHT22;6139;51.274;7.128;2023-04-24T04:10:40;8.60;1.00
12152;DHT22;6139;51.274;7.128;2023-04-24T04:11:42;8.60;1.00
12152;DHT22;6139;51.274;7.128;2023-04-24T04:12:43;8.50;1.00
12152;DHT22;6139;51.274;7.128;2023-04-24T04:13:46;8.50;1.00
12152;DHT22;6139;51.274;7.128;2023-04-24T04:14:50;8.50;1.00
12152;DHT22;6139;51.274;7.128;2023-04-24T04:15:52;8.50;1.00
12152;DHT22;6139;51.274;7.128;2023-04-24T04:16:53;8.50;1.00
12152;DHT22;6139;51.274;7.128;2023-04-24T04:17:55;8.50;1.00
12152;DHT22;6139;51.274;7.128;2023-04-24T04:18:56;8.50;1.00
12152;DHT22;6139;51.274;7.128;2023-04-24T04:19:59;8.50;1.00
12152;DHT22;6139;51.274;7.128;2023-04-24T04:21:00;8.50;1.00
12152;DHT22;6139;51.274;7.128;2023-04-24T04:22:03;8.50;1.00
12152;DHT22;6139;51.274;7.128;2023-04-24T04:23:14;8.60;1.00
12152;DHT22;6139;51.274;7.128;2023-04-24T04:24:32;8.60;1.00
12152;DHT22;6139;51.274;7.128;2023-04-24T04:25:33;8.60;1.00
12152;DHT22;6139;51.274;7.128;2023-04-24T04:26:35;8.60;1.00
12152;DHT22;6139;51.274;7.128;2023-04-24T04:27:43;8.60;1.00
12152;DHT22;6139;51.274;7.128;2023-04-24T04:28:48;8.60;1.00
12152;DHT22;6139;51.274;7.128;2023-04-24T04:29:50;8.60;1.00
12152;DHT22;6139;51.274;7.128;2023-04-24T04:30:52;8.60;1.00
12152;DHT22;6139;51.274;7.128;2023-04-24T04:31:54;8.60;1.00
12152;DHT22;6139;51.274;7.128;2023-04-24T04:32:56;8.60;1.00
12152;DHT22;6139;51.274;7.128;2023-04-24T04:33:58;8.60;1.00
12152;DHT22;6139;51.274;7.128;2023-04-24T04:35:00;8.60;1.00
12152;DHT22;6139;51.274;7.128;2023-04-24T04:36:04;8.60;1.00
12152;DHT22;6139;51.274;7.128;2023-04-24T04:37:07;8.60;1.00
12152;DHT22;6139;51.274;7.128;2023-04-24T04:38:32;8.60;1.00
12152;DHT22;6139;51.274;7.128;2023-04-24T04:39:42;8.60;1.00
12152;DHT22;6139;51.274;7.128;2023-04-24T04:40:47;8.50;1.00
12152;DHT22;6139;51.274;7.128;2023-04-24T04:41:50;8.50;1.00
12152;DHT22;6139;51.274;7.128;2023-04-24T04:42:53;8.50;1.00
12152;DHT22;6139;51.274;7.128;2023-04-24T04:43:58;8.50;1.00
12152;DHT22;6139;51.274;7.128;2023-04-24T04:45:00;8.60;1.00
12152;DHT22;6139;51.274;7.128;2023-04-24T04:46:11;8.60;1.00
12152;DHT22;6139;51.274;7.128;2023-04-24T04:47:21;8.60;1.00
12152;DHT22;6139;51.274;7.128;2023-04-24T04:48:25;8.60;1.00
12152;DHT22;6139;51.274;7.128;2023-04-24T04:49:26;8.60;1.00
12152;DHT22;6139;51.274;7.128;2023-04-24T04:50:29;8.60;1.00
12152;DHT22;6139;51.274;7.128;2023-04-24T04:51:37;8.50;1.00
12152;DHT22;6139;51.274;7.128;2023-04-24T04:52:38;8.50;1.00
12152;DHT22;6139;51.274;7.128;2023-04-24T04:53:51;8.50;1.00
12152;DHT22;6139;51.274;7.128;2023-04-24T04:54:52;8.50;1.00
12152;DHT22;6139;51.274;7.128;2023-04-24T04:55:56;8.50;1.00
12152;DHT22;6139;51.274;7.128;2023-04-24T04:57:02;8.50;1.00
12152;DHT22;6139;51.274;7.128;2023-04-24T04:58:04;8.50;1.00
12152;DHT22;6139;51.274;7.128;2023-04-24T04:59:07;8.50;1.00
12152;DHT22;6139;51.274;7.128;2023-04-24T05:00:11;8.50;1.00
12152;DHT22;6139;51.274;7.128;2023-04-24T05:01:20;8.50;1.00
12152;DHT22;6139;51.274;7.128;2023-04-24T05:02:24;8.50;1.00
12152;DHT22;6139;51.274;7.128;2023-04-24T05:03:25;8.50;1.00
12152;DHT22;6139;51.274;7.128;2023-04-24T05:04:32;8.50;1.00
12152;DHT22;6139;51.274;7.128;2023-04-24T05:05:33;8.50;1.00
12152;DHT22;6139;51.274;7.128;2023-04-24T05:06:35;8.50;1.00
12152;DHT22;6139;51.274;7.128;2023-04-24T05:07:36;8.50;1.00
12152;DHT22;6139;51.274;7.128;2023-04-24T05:08:39;8.60;1.00
12152;DHT22;6139;51.274;7.128;2023-04-24T05:09:43;8.50;1.00
12152;DHT22;6139;51.274;7.128;2023-04-24T05:10:47;8.50;1.00
12152;DHT22;6139;51.274;7.128;2023-04-24T05:11:48;8.50;1.00
12152;DHT22;6139;51.274;7.128;2023-04-24T05:12:51;8.50;1.00
12152;DHT22;6139;51.274;7.128;2023-04-24T05:13:52;8.50;1.00
12152;DHT22;6139;51.274;7.128;2023-04-24T05:15:03;8.50;1.00
12152;DHT22;6139;51.274;7.128;2023-04-24T05:16:05;8.50;1.00
12152;DHT22;6139;51.274;7.128;2023-04-24T05:17:07;8.50;1.00
12152;DHT22;6139;51.274;7.128;2023-04-24T05:18:08;8.50;1.00
12152;DHT22;6139;51.274;7.128;2023-04-24T05:19:10;8.50;1.00
12152;DHT22;6139;51.274;7.128;2023-04-24T05:20:15;8.50;1.00
12152;DHT22;6139;51.274;7.128;2023-04-24T05:21:17;8.40;1.00
12152;DHT22;6139;51.274;7.128;2023-04-24T05:22:22;8.40;1.00
12152;DHT22;6139;51.274;7.128;2023-04-24T05:23:26;8.40;1.00
12152;DHT22;6139;51.274;7.128;2023-04-24T05:24:28;8.30;1.00
12152;DHT22;6139;51.274;7.128;2023-04-24T05:25:55;8.30;23.20
12152;DHT22;6139;51.274;7.128;2023-04-24T05:26:57;8.20;88.50
12152;DHT22;6139;51.274;7.128;2023-04-24T05:28:04;8.20;97.20
12152;DHT22;6139;51.274;7.128;2023-04-24T05:29:07;8.20;99.90
12152;DHT22;6139;51.274;7.128;2023-04-24T05:30:11;8.20;99.90
12152;DHT22;6139;51.274;7.128;2023-04-24T05:31:13;8.20;99.90
12152;DHT22;6139;51.274;7.128;2023-04-24T05:32:16;8.20;99.90
12152;DHT22;6139;51.274;7.128;2023-04-24T05:33:19;8.20;99.90
12152;DHT22;6139;51.274;7.128;2023-04-24T05:34:20;8.20;99.90
12152;DHT22;6139;51.274;7.128;2023-04-24T05:35:26;8.20;99.90
12152;DHT22;6139;51.274;7.128;2023-04-24T05:36:27;8.20;99.90
12152;DHT22;6139;51.274;7.128;2023-04-24T05:37:29;8.20;99.90
12152;DHT22;6139;51.274;7.128;2023-04-24T05:38:31;8.20;99.90
12152;DHT22;6139;51.274;7.128;2023-04-24T05:39:33;8.20;99.90
12152;DHT22;6139;51.274;7.128;2023-04-24T05:40:34;8.20;99.90
12152;DHT22;6139;51.274;7.128;2023-04-24T05:41:36;8.20;99.90
12152;DHT22;6139;51.274;7.128;2023-04-24T05:42:37;8.20;99.90
12152;DHT22;6139;51.274;7.128;2023-04-24T05:43:39;8.20;99.90
12152;DHT22;6139;51.274;7.128;2023-04-24T05:44:40;8.20;99.90
12152;DHT22;6139;51.274;7.128;2023-04-24T05:45:43;8.20;99.90
12152;DHT22;6139;51.274;7.128;2023-04-24T05:46:44;8.20;93.60
12152;DHT22;6139;51.274;7.128;2023-04-24T05:47:46;8.20;99.90
12152;DHT22;6139;51.274;7.128;2023-04-24T05:48:47;8.10;89.80
12152;DHT22;6139;51.274;7.128;2023-04-24T05:49:49;8.10;99.90
12152;DHT22;6139;51.274;7.128;2023-04-24T05:50:51;8.10;99.90
12152;DHT22;6139;51.274;7.128;2023-04-24T05:51:53;8.10;99.90
12152;DHT22;6139;51.274;7.128;2023-04-24T05:52:54;8.20;99.90
12152;DHT22;6139;51.274;7.128;2023-04-24T05:54:00;8.10;99.90
12152;DHT22;6139;51.274;7.128;2023-04-24T05:55:02;8.10;99.90
12152;DHT22;6139;51.274;7.128;2023-04-24T05:56:09;8.10;99.90
12152;DHT22;6139;51.274;7.128;2023-04-24T05:57:11;8.20;99.90
12152;DHT22;6139;51.274;7.128;2023-04-24T05:58:25;8.10;99.90
12152;DHT22;6139;51.274;7.128;2023-04-24T05:59:28;8.10;99.90
12152;DHT22;6139;51.274;7.128;2023-04-24T06:00:29;8.10;99.90
12152;DHT22;6139;51.274;7.128;2023-04-24T06:01:40;8.20;99.90
12152;DHT22;6139;51.274;7.128;2023-04-24T06:02:49;8.20;99.90
12152;DHT22;6139;51.274;7.128;2023-04-24T06:03:50;8.20;99.90
12152;DHT22;6139;51.274;7.128;2023-04-24T06:04:53;8.20;99.90
12152;DHT22;6139;51.274;7.128;2023-04-24T06:05:54;8.20;99.90
12152;DHT22;6139;51.274;7.128;2023-04-24T06:06:57;8.20;99.90
12152;DHT22;6139;51.274;7.128;2023-04-24T06:07:59;8.10;99.90
12152;DHT22;6139;51.274;7.128;2023-04-24T06:09:06;8.10;99.90
12152;DHT22;6139;51.274;7.128;2023-04-24T06:10:09;8.10;99.90
12152;DHT22;6139;51.274;7.128;2023-04-24T06:11:15;8.10;99.90
12152;DHT22;6139;51.274;7.128;2023-04-24T06:12:18;8.10;99.90
12152;DHT22;6139;51.274;7.128;2023-04-24T06:13:27;8.10;99.90
12152;DHT22;6139;51.274;7.128;2023-04-24T06:14:52;8.00;99.90
12152;DHT22;6139;51.274;7.128;2023-04-24T06:15:57;8.00;99.90
12152;DHT22;6139;51.274;7.128;2023-04-24T06:17:08;8.00;99.90
12152;DHT22;6139;51.274;7.128;2023-04-24T06:18:14;8.00;99.90
12152;DHT22;6139;51.274;7.128;2023-04-24T06:19:16;8.00;99.90
12152;DHT22;6139;51.274;7.128;2023-04-24T06:20:18;8.00;99.90
12152;DHT22;6139;51.274;7.128;2023-04-24T06:21:19;8.00;99.90
12152;DHT22;6139;51.274;7.128;2023-04-24T06:22:21;8.00;99.90
12152;DHT22;6139;51.274;7.128;2023-04-24T06:23:22;7.90;99.90
12152;DHT22;6139;51.274;7.128;2023-04-24T06:24:27;8.00;99.90
12152;DHT22;6139;51.274;7.128;2023-04-24T06:25:28;8.00;99.90
12152;DHT22;6139;51.274;7.128;2023-04-24T06:26:30;8.00;99.90
12152;DHT22;6139;51.274;7.128;2023-04-24T06:27:31;8.00;99.90
12152;DHT22;6139;51.274;7.128;2023-04-24T06:28:33;7.90;99.90
12152;DHT22;6139;51.274;7.128;2023-04-24T06:29:36;7.90;99.90
12152;DHT22;6139;51.274;7.128;2023-04-24T06:30:37;7.90;99.90
12152;DHT22;6139;51.274;7.128;2023-04-24T06:31:39;7.90;99.90
12152;DHT22;6139;51.274;7.128;2023-04-24T06:32:42;8.00;99.90
12152;DHT22;6139;51.274;7.128;2023-04-24T06:33:44;7.90;99.90
12152;DHT22;6139;51.274;7.128;2023-04-24T06:34:45;7.90;99.90
12152;DHT22;6139;51.274;7.128;2023-04-24T06:35:47;7.90;99.90
12152;DHT22;6139;51.274;7.128;2023-04-24T06:36:48;7.90;99.90
12152;DHT22;6139;51.274;7.128;2023-04-24T06:37:50;7.90;99.90
12152;DHT22;6139;51.274;7.128;2023-04-24T06:38:52;7.80;99.90
12152;DHT22;6139;51.274;7.128;2023-04-24T06:39:53;7.80;99.90
12152;DHT22;6139;51.274;7.128;2023-04-24T06:40:55;7.80;99.90
12152;DHT22;6139;51.274;7.128;2023-04-24T06:41:56;7.80;99.90
12152;DHT22;6139;51.274;7.128;2023-04-24T06:42:58;7.80;99.90
12152;DHT22;6139;51.274;7.128;2023-04-24T06:44:00;7.90;99.90
12152;DHT22;6139;51.274;7.128;2023-04-24T06:45:03;7.90;99.90
12152;DHT22;6139;51.274;7.128;2023-04-24T06:46:04;7.90;99.90
12152;DHT22;6139;51.274;7.128;2023-04-24T06:47:06;7.90;99.90
12152;DHT22;6139;51.274;7.128;2023-04-24T06:48:09;7.90;99.90
12152;DHT22;6139;51.274;7.128;2023-04-24T06:49:11;7.90;99.90
12152;DHT22;6139;51.274;7.128;2023-04-24T06:50:16;7.90;99.90
12152;DHT22;6139;51.274;7.128;2023-04-24T06:51:17;7.90;99.90
12152;DHT22;6139;51.274;7.128;2023-04-24T06:52:19;7.90;99.90
12152;DHT22;6139;51.274;7.128;2023-04-24T06:53:21;7.90;99.90
12152;DHT22;6139;51.274;7.128;2023-04-24T06:54:22;7.90;99.90
12152;DHT22;6139;51.274;7.128;2023-04-24T06:55:24;7.80;99.90
12152;DHT22;6139;51.274;7.128;2023-04-24T06:56:25;7.80;99.90
12152;DHT22;6139;51.274;7.128;2023-04-24T06:57:29;7.90;99.90
12152;DHT22;6139;51.274;7.128;2023-04-24T06:58:30;7.80;99.90